Time;durP1;ratioP1;P1;durP2;ratioP2;P2;SDS_P1;SDS_P2;PMS_P1;PMS_P2;Temp;Humidity;BMP_temperature;BMP_pressure;BME280_temperature;BME280_humidity;BME280_pressure;Samples;Min_cycle;Max_cycle;Signal;HPM_P1;HPM_P2
2022/05/30 00:00:06;;;;;;;;;;;25.90;40.70;;;;;;5099087;28;1225;-40
2022/05/30 00:02:34;;;;;;;;;;;25.80;40.70;;;;;;5099168;28;996;-42
2022/05/30 00:05:00;;;;;;;;;;;25.90;40.70;;;;;;5097623;28;944;-38
2022/05/30 00:07:28;;;;;;;;;;;25.90;40.70;;;;;;5099856;28;937;-39
2022/05/30 00:09:55;;;;;;;;;;;25.90;40.70;;;;;;5100140;28;1850;-38
2022/05/30 00:12:22;;;;;;;;;;;25.80;40.70;;;;;;5099077;28;1828;-41
2022/05/30 00:14:48;;;;;;;;;;;25.80;40.70;;;;;;5099892;28;940;-38
2022/05/30 00:17:15;;;;;;;;;;;25.80;40.70;;;;;;5099923;28;1909;-38
2022/05/30 00:19:42;;;;;;;;;;;25.80;40.60;;;;;;5099799;28;933;-42
2022/05/30 00:22:11;;;;;;;;;;;25.80;40.70;;;;;;5099287;28;1043;-42
2022/05/30 00:24:39;;;;;;;;;;;25.90;40.70;;;;;;5098399;28;936;-41
2022/05/30 00:27:06;;;;;;;;;;;25.80;40.70;;;;;;5098877;28;1027;-41
2022/05/30 00:29:33;;;;;;;;;;;25.80;40.60;;;;;;5098945;28;929;-41
2022/05/30 00:32:00;;;;;;;;;;;25.80;41.80;;;;;;5099189;28;1024;-41
2022/05/30 00:34:27;;;;;;;;;;;25.80;40.70;;;;;;5098908;28;928;-42
2022/05/30 00:36:54;;;;;;;;;;;25.80;40.70;;;;;;5099112;28;1975;-39
2022/05/30 00:39:21;;;;;;;;;;;25.80;40.70;;;;;;5099583;28;961;-41
2022/05/30 00:41:49;;;;;;;;;;;25.80;40.60;;;;;;5099257;28;991;-42
2022/05/30 00:44:16;;;;;;;;;;;25.90;40.60;;;;;;5098841;28;940;-40
2022/05/30 00:46:42;;;;;;;;;;;25.80;40.50;;;;;;5098932;28;1032;-39
2022/05/30 00:49:12;;;;;;;;;;;25.80;40.60;;;;;;5099201;28;1809;-39
2022/05/30 00:51:40;;;;;;;;;;;25.80;40.50;;;;;;5099609;28;944;-42
2022/05/30 00:54:08;;;;;;;;;;;25.80;40.50;;;;;;5098776;28;929;-40
2022/05/30 00:56:38;;;;;;;;;;;25.80;40.50;;;;;;5098439;28;1011;-41
2022/05/30 00:59:06;;;;;;;;;;;25.80;40.60;;;;;;5099162;28;976;-41
2022/05/30 01:01:33;;;;;;;;;;;25.80;40.50;;;;;;5098667;28;1170;-40
2022/05/30 01:06:46;;;;;;;;;;;25.80;40.50;;;;;;5096962;28;904;-42
2022/05/30 01:09:15;;;;;;;;;;;25.80;40.60;;;;;;5098902;28;981;-41
2022/05/30 01:11:49;;;;;;;;;;;25.80;40.60;;;;;;5098110;28;937;-39
2022/05/30 01:14:18;;;;;;;;;;;25.80;40.60;;;;;;5098110;28;1012;-42
2022/05/30 01:16:44;;;;;;;;;;;25.80;40.60;;;;;;5098052;28;1913;-42
2022/05/30 01:19:16;;;;;;;;;;;25.80;40.50;;;;;;5098175;28;1064;-42
2022/05/30 01:21:51;;;;;;;;;;;25.80;40.50;;;;;;5097771;28;1008;-42
2022/05/30 01:24:23;;;;;;;;;;;25.80;40.50;;;;;;5097767;28;969;-42
2022/05/30 01:27:01;;;;;;;;;;;25.80;40.40;;;;;;5097463;28;1017;-40
2022/05/30 01:29:32;;;;;;;;;;;25.80;40.40;;;;;;5098152;28;944;-39
2022/05/30 01:31:58;;;;;;;;;;;25.80;40.30;;;;;;5097776;28;984;-41
2022/05/30 01:34:26;;;;;;;;;;;25.80;40.30;;;;;;5098219;28;948;-40
2022/05/30 01:36:54;;;;;;;;;;;25.80;40.40;;;;;;5098539;28;1901;-42
2022/05/30 01:39:20;;;;;;;;;;;25.80;40.40;;;;;;5098556;28;936;-41
2022/05/30 01:41:47;;;;;;;;;;;25.80;40.50;;;;;;5098548;28;1784;-41
2022/05/30 01:44:14;;;;;;;;;;;25.80;40.30;;;;;;5097959;28;1028;-41
2022/05/30 01:46:43;;;;;;;;;;;25.70;40.30;;;;;;5097208;28;993;-42
2022/05/30 01:49:09;;;;;;;;;;;25.70;40.30;;;;;;5097622;28;1048;-41
2022/05/30 01:51:36;;;;;;;;;;;25.70;40.40;;;;;;5097883;28;1024;-42
2022/05/30 01:54:03;;;;;;;;;;;25.70;40.40;;;;;;5098207;28;1000;-42
2022/05/30 01:56:30;;;;;;;;;;;25.80;40.40;;;;;;5097995;28;902;-40
2022/05/30 01:58:56;;;;;;;;;;;25.70;40.30;;;;;;5098122;28;1910;-40
2022/05/30 02:01:24;;;;;;;;;;;25.70;40.30;;;;;;5098230;28;1071;-47
2022/05/30 02:03:53;;;;;;;;;;;25.70;40.30;;;;;;5097937;28;957;-47
2022/05/30 02:06:20;;;;;;;;;;;25.70;40.40;;;;;;5096570;28;866;-47
2022/05/30 02:08:47;;;;;;;;;;;25.70;40.40;;;;;;5098398;28;1000;-46
2022/05/30 02:11:14;;;;;;;;;;;25.70;40.40;;;;;;5098845;28;968;-47
2022/05/30 02:13:41;;;;;;;;;;;25.70;40.40;;;;;;5098448;28;1028;-47
2022/05/30 02:18:56;;;;;;;;;;;25.70;40.20;;;;;;5098319;28;1987;-47
2022/05/30 02:21:23;;;;;;;;;;;25.70;40.20;;;;;;5097325;28;983;-47
2022/05/30 02:23:49;;;;;;;;;;;25.70;40.30;;;;;;5098061;28;1000;-46
2022/05/30 02:29:20;;;;;;;;;;;25.70;40.30;;;;;;5098650;28;855;-47
2022/05/30 02:31:46;;;;;;;;;;;25.60;40.20;;;;;;5098354;28;996;-48
2022/05/30 02:36:58;;;;;;;;;;;25.70;40.30;;;;;;5101535;28;643;-48
2022/05/30 02:39:26;;;;;;;;;;;25.70;40.10;;;;;;5102018;28;1992;-48
2022/05/30 02:41:53;;;;;;;;;;;25.60;40.10;;;;;;5102210;28;925;-48
2022/05/30 02:44:21;;;;;;;;;;;25.60;40.00;;;;;;5101286;28;967;-48
2022/05/30 02:46:48;;;;;;;;;;;25.60;40.10;;;;;;5101377;28;947;-48
2022/05/30 02:49:16;;;;;;;;;;;25.60;40.20;;;;;;5101221;28;1108;-48
2022/05/30 02:51:43;;;;;;;;;;;25.60;40.10;;;;;;5102107;28;980;-48
2022/05/30 02:54:11;;;;;;;;;;;25.60;40.20;;;;;;5101392;28;1003;-48
2022/05/30 02:56:38;;;;;;;;;;;25.60;40.10;;;;;;5101142;28;992;-47
2022/05/30 02:59:05;;;;;;;;;;;25.60;40.20;;;;;;5101545;28;1889;-47
2022/05/30 03:01:32;;;;;;;;;;;25.60;40.20;;;;;;5101288;28;1124;-47
2022/05/30 03:03:59;;;;;;;;;;;25.60;40.10;;;;;;5101713;28;1007;-47
2022/05/30 03:06:27;;;;;;;;;;;25.60;40.20;;;;;;5101046;28;995;-47
2022/05/30 03:08:54;;;;;;;;;;;25.60;40.10;;;;;;5101147;28;1176;-46
2022/05/30 03:11:21;;;;;;;;;;;25.60;40.10;;;;;;5101533;28;980;-46
2022/05/30 03:13:47;;;;;;;;;;;25.60;40.10;;;;;;5101189;28;1011;-47
2022/05/30 03:16:14;;;;;;;;;;;25.60;40.10;;;;;;5101603;28;929;-47
2022/05/30 03:18:41;;;;;;;;;;;25.60;40.10;;;;;;5101479;28;1910;-46
2022/05/30 03:21:08;;;;;;;;;;;25.60;40.10;;;;;;5100339;28;1826;-47
2022/05/30 03:23:36;;;;;;;;;;;25.60;40.00;;;;;;5101303;28;1020;-46
2022/05/30 03:26:03;;;;;;;;;;;25.60;40.00;;;;;;5100449;28;938;-42
2022/05/30 03:28:31;;;;;;;;;;;25.60;39.90;;;;;;5100189;28;1003;-41
2022/05/30 03:30:57;;;;;;;;;;;25.60;39.80;;;;;;5100773;28;1023;-41
2022/05/30 03:33:25;;;;;;;;;;;25.60;39.90;;;;;;5101007;28;973;-41
2022/05/30 03:35:51;;;;;;;;;;;25.60;40.00;;;;;;5101048;28;1012;-42
2022/05/30 03:38:18;;;;;;;;;;;25.60;39.90;;;;;;5100720;28;1972;-42
2022/05/30 03:40:46;;;;;;;;;;;25.60;39.90;;;;;;5099969;28;996;-41
2022/05/30 03:43:13;;;;;;;;;;;25.60;40.00;;;;;;5100456;28;1007;-42
2022/05/30 03:45:41;;;;;;;;;;;25.60;39.90;;;;;;5099204;28;980;-41
2022/05/30 03:48:08;;;;;;;;;;;25.60;40.10;;;;;;5099391;28;1028;-42
2022/05/30 03:50:37;;;;;;;;;;;25.60;40.00;;;;;;5099478;28;934;-42
2022/05/30 03:53:05;;;;;;;;;;;25.60;40.00;;;;;;5099728;28;949;-42
2022/05/30 03:55:34;;;;;;;;;;;25.60;40.10;;;;;;5099486;28;1382;-41
2022/05/30 03:58:03;;;;;;;;;;;25.60;40.10;;;;;;5114510;28;1991;-41
2022/05/30 04:00:30;;;;;;;;;;;25.60;40.00;;;;;;5121054;28;1098;-42
2022/05/30 04:02:57;;;;;;;;;;;25.60;39.90;;;;;;5121073;28;936;-42
2022/05/30 04:05:23;;;;;;;;;;;25.60;39.90;;;;;;5120525;28;921;-42
2022/05/30 04:07:50;;;;;;;;;;;25.60;39.90;;;;;;5120075;28;941;-42
2022/05/30 04:10:17;;;;;;;;;;;25.50;39.90;;;;;;5120431;28;954;-42
2022/05/30 04:12:44;;;;;;;;;;;25.60;39.90;;;;;;5119697;28;1020;-41
2022/05/30 04:15:16;;;;;;;;;;;25.60;40.00;;;;;;5120210;28;996;-41
2022/05/30 04:17:43;;;;;;;;;;;25.60;39.90;;;;;;5119907;28;2020;-42
2022/05/30 04:20:10;;;;;;;;;;;25.60;39.70;;;;;;5119495;28;1019;-41
2022/05/30 04:22:37;;;;;;;;;;;25.60;39.90;;;;;;5119539;28;845;-41
2022/05/30 04:25:04;;;;;;;;;;;25.60;39.70;;;;;;5119228;28;999;-43
2022/05/30 04:27:32;;;;;;;;;;;25.60;39.60;;;;;;5118780;28;952;-43
2022/05/30 04:29:58;;;;;;;;;;;25.70;39.60;;;;;;5119069;28;1019;-42
2022/05/30 04:32:26;;;;;;;;;;;25.60;39.70;;;;;;5118881;28;917;-42
2022/05/30 04:34:53;;;;;;;;;;;25.60;39.60;;;;;;5119498;28;1036;-44
2022/05/30 04:37:20;;;;;;;;;;;25.70;39.60;;;;;;5119152;28;884;-44
2022/05/30 04:39:47;;;;;;;;;;;25.60;39.50;;;;;;5118890;28;1909;-42
2022/05/30 04:42:14;;;;;;;;;;;25.60;39.50;;;;;;5118171;28;972;-43
2022/05/30 04:44:40;;;;;;;;;;;25.60;39.70;;;;;;5119144;28;992;-44
2022/05/30 04:47:11;;;;;;;;;;;25.60;39.70;;;;;;5117621;28;1012;-43
2022/05/30 04:49:39;;;;;;;;;;;25.60;39.80;;;;;;5117852;28;1679;-44
2022/05/30 04:52:06;;;;;;;;;;;25.50;39.80;;;;;;5117660;28;988;-43
2022/05/30 04:54:33;;;;;;;;;;;25.50;39.80;;;;;;5117191;28;988;-44
2022/05/30 04:57:00;;;;;;;;;;;25.50;39.80;;;;;;5117500;28;880;-44
2022/05/30 04:59:27;;;;;;;;;;;25.50;39.80;;;;;;5117842;28;1898;-41
2022/05/30 05:01:55;;;;;;;;;;;25.50;39.90;;;;;;5117322;28;1023;-46
2022/05/30 05:04:22;;;;;;;;;;;25.50;39.90;;;;;;5116996;28;941;-47
2022/05/30 05:06:50;;;;;;;;;;;25.50;39.80;;;;;;5116208;28;1037;-46
2022/05/30 05:09:25;;;;;;;;;;;25.50;39.80;;;;;;5117495;28;1023;-47
2022/05/30 05:11:51;;;;;;;;;;;25.50;39.90;;;;;;5116649;28;1020;-38
2022/05/30 05:14:18;;;;;;;;;;;25.50;39.70;;;;;;5115704;28;1008;-40
2022/05/30 05:16:45;;;;;;;;;;;25.50;39.70;;;;;;5116092;28;984;-41
2022/05/30 05:19:12;;;;;;;;;;;25.50;39.80;;;;;;5115300;28;1898;-41
2022/05/30 05:21:40;;;;;;;;;;;25.50;39.70;;;;;;5114045;28;1870;-41
2022/05/30 05:24:09;;;;;;;;;;;25.50;39.80;;;;;;5113413;28;1035;-41
2022/05/30 05:26:35;;;;;;;;;;;25.60;39.60;;;;;;5113749;28;1012;-40
2022/05/30 05:29:02;;;;;;;;;;;25.50;39.50;;;;;;5113449;28;958;-40
2022/05/30 05:31:31;;;;;;;;;;;25.50;39.60;;;;;;5113976;28;987;-40
2022/05/30 05:33:58;;;;;;;;;;;25.50;39.70;;;;;;5113401;28;992;-38
2022/05/30 05:36:27;;;;;;;;;;;25.50;39.70;;;;;;5113915;28;942;-41
2022/05/30 05:38:54;;;;;;;;;;;25.50;39.70;;;;;;5114123;28;1992;-38
2022/05/30 05:41:23;;;;;;;;;;;25.50;39.80;;;;;;5114481;28;920;-41
2022/05/30 05:43:49;;;;;;;;;;;25.50;39.80;;;;;;5115070;28;922;-42
2022/05/30 05:46:18;;;;;;;;;;;25.50;39.60;;;;;;5115503;28;924;-41
2022/05/30 05:48:45;;;;;;;;;;;25.50;39.60;;;;;;5115863;28;1034;-44
2022/05/30 05:51:13;;;;;;;;;;;25.60;39.60;;;;;;5115210;28;1011;-45
2022/05/30 05:53:40;;;;;;;;;;;25.60;39.70;;;;;;5112767;28;908;-44
2022/05/30 05:56:10;;;;;;;;;;;25.60;39.50;;;;;;5114361;28;1000;-44
2022/05/30 05:58:39;;;;;;;;;;;25.50;39.60;;;;;;5113906;28;1929;-44
2022/05/30 06:01:08;;;;;;;;;;;25.50;39.80;;;;;;5113881;28;1148;-44
2022/05/30 06:03:35;;;;;;;;;;;25.50;39.90;;;;;;5113553;28;925;-44
2022/05/30 06:06:03;;;;;;;;;;;25.50;40.00;;;;;;5113758;28;781;-44
2022/05/30 06:08:30;;;;;;;;;;;25.50;40.00;;;;;;5113712;28;913;-44
2022/05/30 06:11:08;;;;;;;;;;;25.50;39.90;;;;;;5112951;28;1020;-44
2022/05/30 06:13:35;;;;;;;;;;;25.50;40.00;;;;;;5113700;28;945;-44
2022/05/30 06:16:05;;;;;;;;;;;25.40;40.00;;;;;;5114176;28;995;-44
2022/05/30 06:18:32;;;;;;;;;;;25.50;40.00;;;;;;5113101;28;1902;-44
2022/05/30 06:20:59;;;;;;;;;;;25.50;40.00;;;;;;5113236;28;1044;-47
2022/05/30 06:23:26;;;;;;;;;;;25.50;40.00;;;;;;5113580;28;966;-46
2022/05/30 06:25:53;;;;;;;;;;;25.50;39.90;;;;;;5113753;28;1015;-46
2022/05/30 06:28:20;;;;;;;;;;;25.60;39.80;;;;;;5113982;28;1024;-42
2022/05/30 06:30:46;;;;;;;;;;;25.50;39.80;;;;;;5114287;28;996;-41
2022/05/30 06:33:14;;;;;;;;;;;25.60;39.80;;;;;;5114465;28;961;-40
2022/05/30 06:35:42;;;;;;;;;;;25.60;39.70;;;;;;5113824;28;885;-44
2022/05/30 06:38:10;;;;;;;;;;;25.60;39.90;;;;;;5114228;28;893;-43
2022/05/30 06:40:36;;;;;;;;;;;25.60;39.90;;;;;;5114521;28;1913;-45
2022/05/30 06:43:04;;;;;;;;;;;25.70;39.90;;;;;;5114393;28;952;-42
2022/05/30 06:45:31;;;;;;;;;;;25.70;39.80;;;;;;5113461;28;988;-43
2022/05/30 06:47:58;;;;;;;;;;;25.70;40.00;;;;;;5113088;28;925;-43
2022/05/30 06:50:27;;;;;;;;;;;25.70;40.20;;;;;;5113395;28;1012;-42
2022/05/30 06:52:54;;;;;;;;;;;25.70;40.30;;;;;;5113707;28;949;-45
2022/05/30 06:55:21;;;;;;;;;;;25.70;40.20;;;;;;5114863;28;997;-46
2022/05/30 07:00:32;;;;;;;;;;;25.70;40.10;;;;;;5114087;28;1901;-44
2022/05/30 07:03:00;;;;;;;;;;;25.60;40.20;;;;;;5114674;28;984;-43
2022/05/30 07:05:28;;;;;;;;;;;25.60;40.20;;;;;;5114183;28;1138;-43
2022/05/30 07:07:56;;;;;;;;;;;25.70;40.10;;;;;;5113534;28;945;-43
2022/05/30 07:10:23;;;;;;;;;;;25.70;40.00;;;;;;5115352;28;1011;-42
2022/05/30 07:12:49;;;;;;;;;;;25.70;40.00;;;;;;5114725;28;1033;-44
2022/05/30 07:15:16;;;;;;;;;;;25.80;39.80;;;;;;5115397;28;1051;-42
2022/05/30 07:17:43;;;;;;;;;;;25.80;40.00;;;;;;5113568;28;945;-46
2022/05/30 07:20:11;;;;;;;;;;;25.70;39.90;;;;;;5115468;28;1972;-42
2022/05/30 07:22:39;;;;;;;;;;;25.70;39.90;;;;;;5118353;28;1039;-43
2022/05/30 07:25:06;;;;;;;;;;;25.70;40.00;;;;;;5119282;28;1015;-45
2022/05/30 07:27:33;;;;;;;;;;;25.70;40.00;;;;;;5118412;28;1004;-46
2022/05/30 07:30:00;;;;;;;;;;;25.80;40.00;;;;;;5118673;28;1180;-45
2022/05/30 07:32:27;;;;;;;;;;;25.80;39.80;;;;;;5119066;28;993;-45
2022/05/30 07:34:54;;;;;;;;;;;25.70;40.00;;;;;;5118306;28;948;-43
2022/05/30 07:37:20;;;;;;;;;;;25.70;40.00;;;;;;5119036;28;988;-42
2022/05/30 07:39:49;;;;;;;;;;;25.70;40.00;;;;;;5118424;28;1921;-42
2022/05/30 07:42:15;;;;;;;;;;;25.70;40.00;;;;;;5117676;28;942;-43
2022/05/30 07:44:42;;;;;;;;;;;25.70;39.90;;;;;;5117001;28;956;-43
2022/05/30 07:47:09;;;;;;;;;;;25.70;40.00;;;;;;5118261;28;1121;-42
2022/05/30 07:49:36;;;;;;;;;;;25.70;39.90;;;;;;5118971;28;1849;-45
2022/05/30 07:52:03;;;;;;;;;;;25.70;39.90;;;;;;5118423;28;952;-45
2022/05/30 07:54:30;;;;;;;;;;;25.70;40.00;;;;;;5118444;28;997;-45
2022/05/30 07:56:58;;;;;;;;;;;25.70;40.00;;;;;;5119163;28;1019;-43
2022/05/30 07:59:24;;;;;;;;;;;25.70;39.90;;;;;;5117936;28;1978;-43
2022/05/30 08:01:51;;;;;;;;;;;25.70;40.00;;;;;;5117657;28;951;-43
2022/05/30 08:04:18;;;;;;;;;;;25.70;39.90;;;;;;5118976;28;976;-43
2022/05/30 08:06:44;;;;;;;;;;;25.80;39.80;;;;;;5117252;28;980;-43
2022/05/30 08:09:11;;;;;;;;;;;25.80;39.70;;;;;;5117986;28;1009;-43
2022/05/30 08:11:38;;;;;;;;;;;25.80;39.70;;;;;;5117547;28;1012;-45
2022/05/30 08:14:07;;;;;;;;;;;25.80;39.80;;;;;;5117661;28;982;-43
2022/05/30 08:16:37;;;;;;;;;;;25.80;39.70;;;;;;5118449;28;971;-45
2022/05/30 08:19:04;;;;;;;;;;;25.80;39.60;;;;;;5117775;28;1988;-43
2022/05/30 08:21:31;;;;;;;;;;;25.80;39.60;;;;;;5117263;28;691;-43
2022/05/30 08:23:57;;;;;;;;;;;25.80;39.60;;;;;;5117688;28;1031;-43
2022/05/30 08:26:24;;;;;;;;;;;25.80;39.60;;;;;;5116849;28;900;-45
2022/05/30 08:28:50;;;;;;;;;;;25.90;39.40;;;;;;5116852;28;991;-45
2022/05/30 08:31:19;;;;;;;;;;;25.90;39.30;;;;;;5117633;28;949;-43
2022/05/30 08:33:45;;;;;;;;;;;25.80;39.50;;;;;;5117118;28;1004;-42
2022/05/30 08:36:13;;;;;;;;;;;25.90;39.40;;;;;;5118126;28;978;-43
2022/05/30 08:38:42;;;;;;;;;;;25.90;39.40;;;;;;5118242;28;1016;-42
2022/05/30 08:43:54;;;;;;;;;;;25.90;39.40;;;;;;5116586;28;1017;-43
2022/05/30 08:46:31;;;;;;;;;;;25.90;39.30;;;;;;5115524;28;1039;-45
2022/05/30 08:49:03;;;;;;;;;;;25.90;39.30;;;;;;5117155;28;1013;-43
2022/05/30 08:51:40;;;;;;;;;;;25.90;39.30;;;;;;5116664;27;1001;-43
2022/05/30 08:54:25;;;;;;;;;;;26.00;39.20;;;;;;5117458;28;1048;-43
2022/05/30 08:56:53;;;;;;;;;;;25.90;39.20;;;;;;5115458;28;984;-43
2022/05/30 08:59:35;;;;;;;;;;;25.80;39.40;;;;;;5116900;28;1902;-42
2022/05/30 09:02:06;;;;;;;;;;;25.90;39.20;;;;;;5116318;28;976;-43
2022/05/30 09:04:36;;;;;;;;;;;25.90;39.20;;;;;;5115975;28;869;-43
2022/05/30 09:07:04;;;;;;;;;;;25.90;39.20;;;;;;5116487;28;929;-43
2022/05/30 09:09:36;;;;;;;;;;;25.90;39.20;;;;;;5115671;28;965;-45
2022/05/30 09:12:05;;;;;;;;;;;26.00;39.00;;;;;;5115320;28;936;-43
2022/05/30 09:14:35;;;;;;;;;;;26.00;39.00;;;;;;5115259;28;977;-44
2022/05/30 09:17:05;;;;;;;;;;;26.00;39.10;;;;;;5115853;28;1076;-45
2022/05/30 09:19:32;;;;;;;;;;;25.90;39.00;;;;;;5115098;28;1901;-43
2022/05/30 09:22:01;;;;;;;;;;;25.90;39.10;;;;;;5114629;28;996;-43
2022/05/30 09:24:28;;;;;;;;;;;25.90;39.00;;;;;;5115074;28;1024;-45
2022/05/30 09:26:57;;;;;;;;;;;25.90;39.00;;;;;;5114372;28;976;-47
2022/05/30 09:29:27;;;;;;;;;;;26.00;38.90;;;;;;5115360;28;996;-45
2022/05/30 09:31:58;;;;;;;;;;;26.00;38.90;;;;;;5116262;28;896;-43
2022/05/30 09:34:31;;;;;;;;;;;26.00;39.00;;;;;;5116660;28;953;-43
2022/05/30 09:36:57;;;;;;;;;;;26.00;39.10;;;;;;5116997;28;1000;-45
2022/05/30 09:39:24;;;;;;;;;;;26.00;39.00;;;;;;5115367;28;1951;-45
2022/05/30 09:41:54;;;;;;;;;;;26.10;38.80;;;;;;5115996;28;1008;-45
2022/05/30 09:44:24;;;;;;;;;;;26.00;38.90;;;;;;5115853;28;977;-43
2022/05/30 09:46:52;;;;;;;;;;;26.00;38.80;;;;;;5115547;28;988;-45
2022/05/30 09:49:21;;;;;;;;;;;26.10;38.70;;;;;;5115463;28;883;-45
2022/05/30 09:51:50;;;;;;;;;;;25.90;38.80;;;;;;5115583;28;987;-43
2022/05/30 09:54:31;;;;;;;;;;;25.90;38.90;;;;;;5115309;28;957;-43
2022/05/30 09:57:01;;;;;;;;;;;25.90;39.00;;;;;;5114462;28;864;-43
2022/05/30 09:59:31;;;;;;;;;;;26.00;39.00;;;;;;5115109;28;1906;-42
2022/05/30 10:01:58;;;;;;;;;;;25.90;38.80;;;;;;5115060;28;952;-43
2022/05/30 10:04:31;;;;;;;;;;;26.00;38.80;;;;;;5114718;28;1789;-43
2022/05/30 10:07:08;;;;;;;;;;;26.00;38.80;;;;;;5114344;28;830;-43
2022/05/30 10:09:35;;;;;;;;;;;25.90;38.90;;;;;;5115335;28;991;-42
2022/05/30 10:12:02;;;;;;;;;;;25.90;38.90;;;;;;5113717;28;1769;-43
2022/05/30 10:14:32;;;;;;;;;;;25.90;38.90;;;;;;5111865;28;961;-43
2022/05/30 10:17:02;;;;;;;;;;;26.00;38.80;;;;;;5115296;28;1041;-46
2022/05/30 10:19:32;;;;;;;;;;;25.90;39.90;;;;;;5116407;28;934;-45
2022/05/30 10:30:34;;;;;;;;;;;25.90;38.70;;;;;;5113761;28;596;-46
2022/05/30 10:33:06;;;;;;;;;;;25.90;39.90;;;;;;5113279;28;921;-45
2022/05/30 10:35:36;;;;;;;;;;;25.90;38.80;;;;;;5113334;28;987;-45
2022/05/30 10:38:20;;;;;;;;;;;25.90;38.80;;;;;;5114269;28;940;-46
2022/05/30 10:41:05;;;;;;;;;;;25.90;38.80;;;;;;5114379;28;1974;-45
2022/05/30 10:43:40;;;;;;;;;;;25.90;38.80;;;;;;5115795;28;1025;-43
2022/05/30 10:46:09;;;;;;;;;;;25.90;38.90;;;;;;5113763;28;915;-42
2022/05/30 10:48:38;;;;;;;;;;;25.90;38.90;;;;;;5114511;28;961;-43
2022/05/30 10:51:06;;;;;;;;;;;25.90;38.80;;;;;;5113638;28;1132;-47
2022/05/30 10:53:37;;;;;;;;;;;25.90;38.90;;;;;;5113983;28;870;-46
2022/05/30 10:56:11;;;;;;;;;;;25.90;39.00;;;;;;5114632;28;1002;-47
2022/05/30 10:58:40;;;;;;;;;;;25.90;39.00;;;;;;5117123;28;1056;-47
2022/05/30 11:01:09;;;;;;;;;;;25.90;38.90;;;;;;5116737;28;1913;-47
2022/05/30 11:03:40;;;;;;;;;;;25.90;39.00;;;;;;5117510;28;968;-49
2022/05/30 11:06:09;;;;;;;;;;;25.90;39.00;;;;;;5117538;28;857;-39
2022/05/30 11:08:38;;;;;;;;;;;26.00;39.10;;;;;;5118352;28;992;-39
2022/05/30 11:11:08;;;;;;;;;;;25.90;39.00;;;;;;5117253;28;1015;-38
2022/05/30 11:13:40;;;;;;;;;;;26.00;39.00;;;;;;5117870;28;933;-38
2022/05/30 11:16:09;;;;;;;;;;;25.90;39.00;;;;;;5117031;28;1837;-39
2022/05/30 11:18:40;;;;;;;;;;;25.90;38.90;;;;;;5116494;28;1059;-38
2022/05/30 11:21:10;;;;;;;;;;;25.90;38.90;;;;;;5116368;28;1988;-39
2022/05/30 11:23:36;;;;;;;;;;;26.00;39.00;;;;;;5115492;28;975;-40
2022/05/30 11:26:18;;;;;;;;;;;26.00;39.00;;;;;;5118130;28;1004;-38
2022/05/30 11:28:55;;;;;;;;;;;26.00;38.80;;;;;;5117104;28;929;-38
2022/05/30 11:31:23;;;;;;;;;;;26.00;38.80;;;;;;5117802;28;1024;-38
2022/05/30 11:34:04;;;;;;;;;;;26.00;39.10;;;;;;5116850;28;1031;-38
2022/05/30 11:36:48;;;;;;;;;;;26.00;39.00;;;;;;5115551;28;960;-38
2022/05/30 11:39:32;;;;;;;;;;;26.00;38.90;;;;;;5116296;28;1654;-39
2022/05/30 11:42:05;;;;;;;;;;;26.00;39.00;;;;;;5116080;28;1910;-39
2022/05/30 11:44:46;;;;;;;;;;;26.00;39.10;;;;;;5115839;28;1035;-38
2022/05/30 11:47:30;;;;;;;;;;;26.00;39.10;;;;;;5115794;28;889;-39
2022/05/30 11:50:02;;;;;;;;;;;26.00;39.00;;;;;;5115142;28;976;-39
2022/05/30 11:52:34;;;;;;;;;;;26.00;39.00;;;;;;5115829;28;937;-38
2022/05/30 11:55:11;;;;;;;;;;;26.00;39.00;;;;;;5117852;28;988;-39
2022/05/30 11:57:44;;;;;;;;;;;26.10;39.10;;;;;;5117274;28;1575;-38
2022/05/30 12:00:15;;;;;;;;;;;26.10;38.90;;;;;;5116667;28;1981;-39
2022/05/30 12:03:06;;;;;;;;;;;26.10;39.10;;;;;;5116755;28;960;-39
2022/05/30 12:05:44;;;;;;;;;;;26.00;39.10;;;;;;5095734;28;1243;-38
2022/05/30 12:08:19;;;;;;;;;;;26.10;39.00;;;;;;5114302;28;993;-39
2022/05/30 12:10:56;;;;;;;;;;;26.10;38.90;;;;;;5116976;28;952;-38
2022/05/30 12:13:32;;;;;;;;;;;26.10;38.90;;;;;;5115431;28;937;-38
2022/05/30 12:16:06;;;;;;;;;;;26.10;38.90;;;;;;5116292;28;984;-38
2022/05/30 12:24:30;;;;;;;;;;;26.10;38.90;;;;;;5117136;28;910;-39
2022/05/30 12:26:58;;;;;;;;;;;26.10;38.80;;;;;;5117147;28;999;-38
2022/05/30 12:29:46;;;;;;;;;;;26.10;38.90;;;;;;5117201;28;1092;-38
2022/05/30 12:32:16;;;;;;;;;;;26.10;38.90;;;;;;5108578;28;1154;-38
2022/05/30 12:35:05;;;;;;;;;;;26.10;38.80;;;;;;5114666;28;1508;-39
2022/05/30 12:37:44;;;;;;;;;;;26.10;38.90;;;;;;5098728;28;1173;-39
2022/05/30 12:40:13;;;;;;;;;;;26.10;38.70;;;;;;5098591;28;970;-38
2022/05/30 12:42:42;;;;;;;;;;;26.10;38.70;;;;;;5095525;28;929;-39
2022/05/30 12:45:20;;;;;;;;;;;26.10;38.80;;;;;;5096615;28;932;-38
2022/05/30 12:47:51;;;;;;;;;;;26.10;38.90;;;;;;5096533;28;925;-38
2022/05/30 12:50:39;;;;;;;;;;;26.10;38.80;;;;;;5095623;28;937;-39
2022/05/30 12:53:07;;;;;;;;;;;26.10;38.90;;;;;;5096046;28;962;-39
2022/05/30 12:55:37;;;;;;;;;;;26.10;38.70;;;;;;5093689;28;1003;-38
2022/05/30 12:58:05;;;;;;;;;;;26.20;40.00;;;;;;5093642;28;921;-39
2022/05/30 13:00:49;;;;;;;;;;;26.20;38.90;;;;;;5094635;28;1978;-39
2022/05/30 13:03:34;;;;;;;;;;;26.20;38.90;;;;;;5094536;28;941;-39
2022/05/30 13:06:05;;;;;;;;;;;26.10;38.80;;;;;;5093112;28;1842;-39
2022/05/30 13:09:05;;;;;;;;;;;26.20;38.90;;;;;;5094125;28;1254;-39
2022/05/30 13:11:41;;;;;;;;;;;26.10;38.70;;;;;;5095144;28;965;-38
2022/05/30 13:14:15;;;;;;;;;;;26.10;38.90;;;;;;5095554;28;1001;-39
2022/05/30 13:16:43;;;;;;;;;;;26.20;38.90;;;;;;5093588;28;972;-39
2022/05/30 13:19:11;;;;;;;;;;;26.20;38.90;;;;;;5093854;28;1035;-39
2022/05/30 13:21:40;;;;;;;;;;;26.20;38.90;;;;;;5095537;28;1978;-38
2022/05/30 13:24:21;;;;;;;;;;;26.10;38.90;;;;;;5094341;28;992;-39
2022/05/30 13:26:50;;;;;;;;;;;26.10;38.90;;;;;;5093777;28;1603;-39
2022/05/30 13:29:17;;;;;;;;;;;26.20;38.80;;;;;;5094844;28;876;-38
2022/05/30 13:31:43;;;;;;;;;;;26.20;38.80;;;;;;5094497;28;1451;-38
2022/05/30 13:34:10;;;;;;;;;;;26.20;38.70;;;;;;5094668;28;963;-39
2022/05/30 13:36:38;;;;;;;;;;;26.20;38.70;;;;;;5093412;28;852;-39
2022/05/30 13:39:05;;;;;;;;;;;26.20;38.90;;;;;;5094831;28;981;-38
2022/05/30 13:41:36;;;;;;;;;;;26.20;38.70;;;;;;5094455;28;1901;-38
2022/05/30 13:44:03;;;;;;;;;;;26.20;38.70;;;;;;5095587;28;1782;-38
2022/05/30 13:46:31;;;;;;;;;;;26.20;38.60;;;;;;5094570;28;925;-39
2022/05/30 13:48:57;;;;;;;;;;;26.30;38.90;;;;;;5094209;28;941;-39
2022/05/30 13:51:26;;;;;;;;;;;26.20;38.70;;;;;;5094191;28;1025;-38
2022/05/30 13:53:57;;;;;;;;;;;26.30;38.80;;;;;;5094095;28;984;-39
2022/05/30 13:56:25;;;;;;;;;;;26.30;38.90;;;;;;5093829;28;1957;-38
2022/05/30 13:58:54;;;;;;;;;;;26.30;38.80;;;;;;5093611;28;1004;-38
2022/05/30 14:01:23;;;;;;;;;;;26.30;38.80;;;;;;5094275;28;1910;-38
2022/05/30 14:03:51;;;;;;;;;;;26.30;38.80;;;;;;5093064;28;968;-39
2022/05/30 14:06:22;;;;;;;;;;;26.30;38.80;;;;;;5099289;28;1852;-38
2022/05/30 14:08:49;;;;;;;;;;;26.30;38.80;;;;;;5116970;28;1104;-39
2022/05/30 14:11:18;;;;;;;;;;;26.40;38.80;;;;;;5117075;28;987;-40
2022/05/30 14:13:52;;;;;;;;;;;26.30;38.70;;;;;;5116670;28;997;-38
2022/05/30 14:16:30;;;;;;;;;;;26.40;38.70;;;;;;5117104;28;1072;-39
2022/05/30 14:18:58;;;;;;;;;;;26.40;38.70;;;;;;5115652;28;1009;-39
2022/05/30 14:21:25;;;;;;;;;;;26.40;38.70;;;;;;5114175;28;1922;-39
2022/05/30 14:23:54;;;;;;;;;;;26.40;38.60;;;;;;5113882;28;1152;-38
2022/05/30 14:26:30;;;;;;;;;;;26.50;38.60;;;;;;5115677;28;880;-39
2022/05/30 14:29:00;;;;;;;;;;;26.50;38.60;;;;;;5114828;28;1008;-38
2022/05/30 14:31:29;;;;;;;;;;;26.60;38.60;;;;;;5113714;28;972;-38
2022/05/30 14:33:58;;;;;;;;;;;26.50;38.60;;;;;;5114848;28;1024;-38
2022/05/30 14:36:28;;;;;;;;;;;26.60;38.70;;;;;;5115336;28;972;-39
2022/05/30 14:39:00;;;;;;;;;;;26.50;38.50;;;;;;5115487;28;960;-38
2022/05/30 14:41:33;;;;;;;;;;;26.60;38.50;;;;;;5114198;28;1994;-38
2022/05/30 14:44:00;;;;;;;;;;;26.60;38.50;;;;;;5115324;28;1015;-39
2022/05/30 14:46:31;;;;;;;;;;;26.70;38.50;;;;;;5113767;28;994;-38
2022/05/30 14:48:58;;;;;;;;;;;26.70;38.50;;;;;;5112243;28;1211;-38
2022/05/30 14:51:30;;;;;;;;;;;26.70;38.50;;;;;;5112971;28;956;-38
2022/05/30 14:54:00;;;;;;;;;;;26.70;38.50;;;;;;5113613;28;1003;-38
2022/05/30 14:56:27;;;;;;;;;;;26.70;38.40;;;;;;5113062;28;940;-39
2022/05/30 14:59:04;;;;;;;;;;;26.80;38.40;;;;;;5095914;28;1412;-39
2022/05/30 15:01:32;;;;;;;;;;;26.80;38.40;;;;;;5095272;28;1971;-39
2022/05/30 15:04:09;;;;;;;;;;;26.90;38.30;;;;;;5094394;28;1033;-33
2022/05/30 15:06:39;;;;;;;;;;;26.90;38.30;;;;;;5094475;28;921;-37
2022/05/30 15:09:06;;;;;;;;;;;27.00;38.30;;;;;;5093362;28;976;-32
2022/05/30 15:11:33;;;;;;;;;;;27.00;38.20;;;;;;5091823;28;962;-32
2022/05/30 15:14:03;;;;;;;;;;;27.10;38.20;;;;;;5093370;28;945;-33
2022/05/30 15:16:30;;;;;;;;;;;27.10;38.20;;;;;;5093470;28;896;-33
2022/05/30 15:18:57;;;;;;;;;;;27.10;38.00;;;;;;5093143;28;1000;-32